WXM80 ListenWXM80 Stop

You find our weather info also at:

UK Metoffice

WeatherCloud

Weather Underground

Northeastern Weather Network

AWEKAS

Citizen Weather Observer Program (CWOP)

HAMweather, WeatherForYou, PWS Weather


Weather Underground History page Text

Daily Summary for December 27, 2017 Units:  English    Metric   Both
« Previous Day
Next Day »
Daily Weekly Monthly Yearly Custom
  High: Low: Average:
Temperature: TemperatureF °F 18.6 °F 21.9 °F
Dew Point: DewpointF °F 3.9 °F 7.3 °F
Humidity: Humidity % 42 % 53 %
Wind Speed: WindSpeedMPH mph 0.5 mph 4.9 mph
Wind Gust: WindSpeedGustMPH mph - -
Wind:- - WNW
Pressure: PressureIn in 30.41 in -
Precipitation: 0.00 in    
Historical Graphs
 
 
Tabular Data for December 27, 2017
Time Temperature Dew Point Pressure Wind Wind Speed Wind Gust Humidity Rainfall Rate (Hourly)
TemperatureF °F DewpointF °F PressureIn in Calm     Humidity % HourlyPrecipIn in
00:00 24.3 °F 10.4 °F 30.45 in NW 4.6 mph 10.4 mph 55 % 0.00 in
00:01 24.3 °F 10.4 °F 30.45 in NW 4.5 mph 10.4 mph 55 % 0.00 in
00:06 24.3 °F 10.4 °F 30.45 in NW 5.0 mph 10.0 mph 55 % 0.00 in
00:07 24.2 °F 10.3 °F 30.45 in NW 3.9 mph 10.4 mph 55 % 0.00 in
00:13 24.2 °F 10.3 °F 30.44 in WNW 2.9 mph 9.2 mph 55 % 0.00 in
00:16 24.1 °F 11.0 °F 30.45 in NW 3.6 mph 6.9 mph 57 % 0.00 in
00:21 24.0 °F 11.0 °F 30.45 in WNW 4.0 mph 8.0 mph 57 % 0.00 in
00:26 24.0 °F 11.0 °F 30.45 in NW 2.9 mph 8.1 mph 57 % 0.00 in
00:32 23.9 °F 10.9 °F 30.45 in North 5.8 mph 10.4 mph 57 % 0.00 in
00:37 23.8 °F 10.4 °F 30.45 in NNW 3.3 mph 9.2 mph 56 % 0.00 in
00:39 23.8 °F 10.8 °F 30.45 in WNW 7.7 mph 10.4 mph 57 % 0.00 in
00:44 23.6 °F 10.2 °F 30.45 in NNW 4.8 mph 9.2 mph 56 % 0.00 in
00:46 23.6 °F 10.2 °F 30.44 in NW 2.9 mph 5.8 mph 56 % 0.00 in
00:51 23.6 °F 10.2 °F 30.45 in NW 4.5 mph 11.5 mph 56 % 0.00 in
00:52 23.5 °F 10.1 °F 30.45 in NNW 5.7 mph 9.2 mph 56 % 0.00 in
00:57 23.5 °F 10.1 °F 30.45 in NW 4.3 mph 9.2 mph 56 % 0.00 in
01:01 23.5 °F 10.5 °F 30.45 in NW 6.4 mph 11.5 mph 57 % 0.00 in
01:06 23.5 °F 10.1 °F 30.45 in NW 7.8 mph 11.5 mph 56 % 0.00 in
01:08 23.5 °F 10.1 °F 30.45 in WNW 5.3 mph 12.7 mph 56 % 0.00 in
01:13 23.4 °F 10.4 °F 30.44 in NW 4.9 mph 10.4 mph 57 % 0.00 in
01:15 23.4 °F 10.4 °F 30.45 in WNW 7.5 mph 10.4 mph 57 % 0.00 in
01:20 23.4 °F 10.8 °F 30.45 in WNW 3.2 mph 6.0 mph 58 % 0.00 in
01:21 23.5 °F 10.9 °F 30.45 in West 3.8 mph 11.5 mph 58 % 0.00 in
01:22 23.4 °F 10.8 °F 30.45 in WNW 3.5 mph 5.0 mph 58 % 0.00 in
01:26 23.4 °F 9.6 °F 30.45 in NNW 7.6 mph 12.7 mph 55 % 0.00 in
01:31 23.3 °F 9.5 °F 30.45 in NNW 6.7 mph 10.4 mph 55 % 0.00 in
01:32 23.3 °F 9.5 °F 30.45 in WSW 5.6 mph 9.2 mph 55 % 0.00 in
01:37 23.3 °F 9.9 °F 30.45 in NW 5.9 mph 10.4 mph 56 % 0.00 in
01:38 23.3 °F 9.9 °F 30.45 in WNW 5.9 mph 10.4 mph 56 % 0.00 in
01:39 23.3 °F 9.9 °F 30.45 in West 6.9 mph 11.5 mph 56 % 0.00 in
01:44 23.2 °F 9.4 °F 30.45 in NW 6.9 mph 10.0 mph 55 % 0.00 in
01:49 23.0 °F 9.2 °F 30.45 in WNW 6.5 mph 13.8 mph 55 % 0.00 in
01:54 23.0 °F 10.0 °F 30.46 in WNW 4.6 mph 6.0 mph 57 % 0.00 in
01:55 22.9 °F 9.5 °F 30.45 in NW 5.3 mph 9.2 mph 56 % 0.00 in
02:00 22.8 °F 10.2 °F 30.46 in NW 7.2 mph 9.2 mph 58 % 0.00 in
02:05 22.8 °F 9.8 °F 30.46 in WNW 5.0 mph 9.2 mph 57 % 0.00 in
02:10 22.7 °F 9.7 °F 30.46 in West 4.3 mph 9.2 mph 57 % 0.00 in
02:15 22.7 °F 10.1 °F 30.46 in WNW 4.6 mph 11.5 mph 58 % 0.00 in
02:16 22.7 °F 10.1 °F 30.46 in NNW 3.8 mph 10.4 mph 58 % 0.00 in
02:18 22.6 °F 10.0 °F 30.46 in NNW 2.3 mph 5.8 mph 58 % 0.00 in
02:21 22.6 °F 9.6 °F 30.46 in NNW 4.9 mph 9.2 mph 57 % 0.00 in
02:24 22.6 °F 10.0 °F 30.46 in NW 7.6 mph 13.8 mph 58 % 0.00 in
02:29 22.6 °F 10.0 °F 30.46 in WSW 6.3 mph 10.0 mph 58 % 0.00 in
02:34 22.6 °F 10.4 °F 30.46 in West 3.6 mph 4.0 mph 59 % 0.00 in
02:39 22.6 °F 10.0 °F 30.47 in NNW 2.9 mph 11.0 mph 58 % 0.00 in
02:44 22.5 °F 9.9 °F 30.47 in NW 4.7 mph 15.0 mph 58 % 0.00 in
02:49 22.5 °F 9.9 °F 30.47 in NW 5.3 mph 10.4 mph 58 % 0.00 in
02:54 22.5 °F 9.9 °F 30.47 in NW 5.6 mph 9.0 mph 58 % 0.00 in
02:59 22.5 °F 10.3 °F 30.47 in West 6.5 mph 11.0 mph 59 % 0.00 in
03:02 22.5 °F 9.9 °F 30.47 in NW 6.0 mph 10.0 mph 58 % 0.00 in
03:04 22.5 °F 9.9 °F 30.47 in NW 5.7 mph 12.7 mph 58 % 0.00 in
03:09 22.4 °F 9.4 °F 30.46 in WNW 3.9 mph 6.9 mph 57 % 0.00 in
03:14 22.4 °F 9.8 °F 30.47 in NW 4.7 mph 8.1 mph 58 % 0.00 in
03:15 22.4 °F 9.8 °F 30.46 in NW 4.1 mph 8.1 mph 58 % 0.00 in
03:20 22.3 °F 9.7 °F 30.46 in WNW 4.0 mph 12.7 mph 58 % 0.00 in
03:25 22.2 °F 9.3 °F 30.47 in NNW 3.9 mph 9.2 mph 57 % 0.00 in
03:27 22.2 °F 9.7 °F 30.47 in North 6.2 mph 10.4 mph 58 % 0.00 in
03:32 22.2 °F 9.7 °F 30.47 in NNW 6.2 mph 12.0 mph 58 % 0.00 in
03:37 22.2 °F 9.7 °F 30.47 in West 6.4 mph 10.4 mph 58 % 0.00 in
03:42 22.2 °F 10.0 °F 30.47 in NW 6.1 mph 12.0 mph 59 % 0.00 in
03:48 22.1 °F 9.6 °F 30.47 in NW 5.1 mph 11.5 mph 58 % 0.00 in
03:52 22.1 °F 9.6 °F 30.47 in NW 4.8 mph 8.0 mph 58 % 0.00 in
03:57 22.0 °F 8.7 °F 30.47 in NW 5.1 mph 9.0 mph 56 % 0.00 in
04:00 22.0 °F 8.7 °F 30.47 in WNW 7.2 mph 13.0 mph 56 % 0.00 in
04:05 21.9 °F 8.2 °F 30.47 in WSW 6.5 mph 13.8 mph 55 % 0.00 in
04:10 21.8 °F 8.5 °F 30.47 in WNW 3.8 mph 10.0 mph 56 % 0.00 in
04:13 21.8 °F 8.9 °F 30.47 in NW 5.2 mph 7.0 mph 57 % 0.00 in
04:19 21.8 °F 8.9 °F 30.47 in WNW 2.1 mph 11.5 mph 57 % 0.00 in
04:24 21.7 °F 8.8 °F 30.47 in NNW 2.5 mph 8.1 mph 57 % 0.00 in
04:25 21.7 °F 8.8 °F 30.47 in West 6.4 mph 15.0 mph 57 % 0.00 in
04:29 21.7 °F 8.4 °F 30.47 in NW 4.8 mph 9.2 mph 56 % 0.00 in
04:31 21.7 °F 8.4 °F 30.47 in WNW 4.8 mph 9.2 mph 56 % 0.00 in
04:36 21.7 °F 9.2 °F 30.48 in NW 1.5 mph 6.9 mph 58 % 0.00 in
04:41 21.6 °F 9.1 °F 30.48 in NW 7.2 mph 10.4 mph 58 % 0.00 in
04:46 21.6 °F 9.5 °F 30.48 in NNE 1.3 mph 5.8 mph 59 % 0.00 in
04:51 21.7 °F 9.9 °F 30.48 in WNW 4.2 mph 6.0 mph 60 % 0.00 in
04:52 21.7 °F 9.6 °F 30.48 in NW 3.1 mph 8.0 mph 59 % 0.00 in
04:57 21.6 °F 9.5 °F 30.48 in NW 3.0 mph 5.8 mph 59 % 0.00 in
05:02 21.6 °F 9.5 °F 30.48 in NW 5.6 mph 7.0 mph 59 % 0.00 in
05:03 21.5 °F 9.0 °F 30.48 in NW 5.3 mph 11.5 mph 58 % 0.00 in
05:06 21.5 °F 9.0 °F 30.47 in NNW 4.5 mph 9.0 mph 58 % 0.00 in
05:10 21.5 °F 9.0 °F 30.48 in WNW 4.9 mph 9.2 mph 58 % 0.00 in
05:12 21.5 °F 9.0 °F 30.47 in WNW 4.7 mph 8.1 mph 58 % 0.00 in
05:16 21.4 °F 8.9 °F 30.47 in WNW 3.7 mph 11.5 mph 58 % 0.00 in
05:21 21.4 °F 9.3 °F 30.48 in WNW 3.3 mph 6.9 mph 59 % 0.00 in
05:27 21.3 °F 8.8 °F 30.48 in WNW 5.3 mph 9.0 mph 58 % 0.00 in
05:28 21.3 °F 8.8 °F 30.48 in NNW 6.2 mph 9.2 mph 58 % 0.00 in
05:33 21.3 °F 9.6 °F 30.48 in WSW 2.3 mph 9.0 mph 60 % 0.00 in
05:37 21.3 °F 9.2 °F 30.48 in NW 2.5 mph 8.1 mph 59 % 0.00 in
05:42 21.3 °F 9.2 °F 30.48 in NNW 1.7 mph 8.1 mph 59 % 0.00 in
05:46 21.3 °F 9.2 °F 30.48 in NW 2.0 mph 8.0 mph 59 % 0.00 in
05:51 21.2 °F 8.7 °F 30.49 in WNW 2.0 mph 12.0 mph 58 % 0.00 in
05:56 21.2 °F 9.1 °F 30.49 in WNW 2.0 mph 4.6 mph 59 % 0.00 in
06:01 21.2 °F 8.7 °F 30.49 in NW 2.5 mph 6.9 mph 58 % 0.00 in
06:05 21.2 °F 8.7 °F 30.49 in NW 4.2 mph 10.4 mph 58 % 0.00 in
06:10 21.1 °F 9.0 °F 30.49 in NW 5.2 mph 9.2 mph 59 % 0.00 in
06:12 21.1 °F 9.0 °F 30.49 in West 2.0 mph 8.1 mph 59 % 0.00 in
06:15 21.1 °F 9.0 °F 30.50 in NNW 4.5 mph 9.2 mph 59 % 0.00 in
06:20 21.1 °F 9.0 °F 30.49 in WNW 3.2 mph 5.8 mph 59 % 0.00 in
06:25 21.0 °F 8.9 °F 30.50 in WNW 1.1 mph 4.6 mph 59 % 0.00 in
06:27 21.0 °F 8.5 °F 30.50 in WNW 2.0 mph 6.0 mph 58 % 0.00 in
06:32 21.0 °F 9.3 °F 30.50 in NW 2.0 mph 5.0 mph 60 % 0.00 in
06:33 21.0 °F 9.3 °F 30.50 in NW 5.8 mph 10.4 mph 60 % 0.00 in
06:38 20.9 °F 8.4 °F 30.50 in WNW 2.0 mph 5.8 mph 58 % 0.00 in
06:41 20.9 °F 8.4 °F 30.50 in NW 3.0 mph 7.0 mph 58 % 0.00 in
06:46 20.8 °F 9.1 °F 30.49 in NNW 2.5 mph 8.1 mph 60 % 0.00 in
06:48 20.8 °F 9.1 °F 30.50 in NW 2.4 mph 6.9 mph 60 % 0.00 in
06:53 20.8 °F 9.1 °F 30.50 in WNW 3.2 mph 8.1 mph 60 % 0.00 in
06:58 20.7 °F 8.6 °F 30.51 in WNW 3.7 mph 9.2 mph 59 % 0.00 in
07:03 20.7 °F 8.6 °F 30.50 in NNW 4.6 mph 6.9 mph 59 % 0.00 in
07:07 20.6 °F 8.5 °F 30.50 in NNW 5.4 mph 11.5 mph 59 % 0.00 in
07:09 20.6 °F 8.5 °F 30.50 in NNW 4.0 mph 8.1 mph 59 % 0.00 in
07:15 20.5 °F 8.4 °F 30.50 in WNW 1.8 mph 6.0 mph 59 % 0.00 in
07:17 20.4 °F 8.3 °F 30.50 in NNW 3.3 mph 8.1 mph 59 % 0.00 in
07:22 20.3 °F 8.2 °F 30.50 in WNW 3.9 mph 8.0 mph 59 % 0.00 in
07:23 20.3 °F 8.2 °F 30.50 in NW 4.5 mph 8.0 mph 59 % 0.00 in
07:28 20.3 °F 8.2 °F 30.50 in West 3.5 mph 8.0 mph 59 % 0.00 in
07:32 20.2 °F 8.1 °F 30.50 in WNW 6.7 mph 11.0 mph 59 % 0.00 in
07:37 20.2 °F 7.8 °F 30.49 in NW 3.3 mph 5.8 mph 58 % 0.00 in
07:38 20.2 °F 7.8 °F 30.49 in WNW 2.1 mph 6.9 mph 58 % 0.00 in
07:41 20.1 °F 7.7 °F 30.49 in WNW 2.0 mph 6.9 mph 58 % 0.00 in
07:46 20.0 °F 8.3 °F 30.49 in NW 1.1 mph 3.5 mph 60 % 0.00 in
07:51 20.0 °F 8.0 °F 30.50 in WNW 4.5 mph 7.0 mph 59 % 0.00 in
07:56 19.9 °F 7.9 °F 30.50 in West 4.4 mph 6.9 mph 59 % 0.00 in
08:00 19.9 °F 8.2 °F 30.50 in WNW 5.2 mph 11.0 mph 60 % 0.00 in
08:05 19.9 °F 7.5 °F 30.50 in West 3.2 mph 5.0 mph 58 % 0.00 in
08:06 19.9 °F 7.9 °F 30.50 in WNW 3.3 mph 8.1 mph 59 % 0.00 in
08:11 19.9 °F 7.5 °F 30.50 in WNW 4.0 mph 8.1 mph 58 % 0.00 in
08:12 19.9 °F 7.5 °F 30.50 in WNW 2.7 mph 8.1 mph 58 % 0.00 in
08:17 20.0 °F 8.3 °F 30.50 in NW 1.9 mph 6.9 mph 60 % 0.00 in
08:18 20.0 °F 8.3 °F 30.49 in WNW 2.8 mph 4.6 mph 60 % 0.00 in
08:23 20.1 °F 8.1 °F 30.50 in NW 4.5 mph 11.5 mph 59 % 0.00 in
08:27 20.2 °F 8.1 °F 30.50 in West 3.3 mph 11.5 mph 59 % 0.00 in
08:29 20.3 °F 7.9 °F 30.50 in WNW 3.1 mph 8.0 mph 58 % 0.00 in
08:34 20.3 °F 7.9 °F 30.50 in WNW 4.5 mph 11.5 mph 58 % 0.00 in
08:39 20.4 °F 8.3 °F 30.50 in NW 4.9 mph 9.2 mph 59 % 0.00 in
08:41 20.4 °F 8.0 °F 30.50 in NW 3.0 mph 9.0 mph 58 % 0.00 in
08:45 20.5 °F 8.0 °F 30.50 in NNW 4.1 mph 7.0 mph 58 % 0.00 in
08:46 20.5 °F 8.0 °F 30.50 in WSW 5.5 mph 11.0 mph 58 % 0.00 in
08:51 20.6 °F 8.1 °F 30.50 in NW 6.9 mph 11.5 mph 58 % 0.00 in
08:52 20.6 °F 7.8 °F 30.50 in NW 2.6 mph 6.9 mph 57 % 0.00 in
08:57 20.7 °F 8.2 °F 30.50 in NW 3.2 mph 4.0 mph 58 % 0.00 in
09:02 20.7 °F 7.9 °F 30.50 in West 4.2 mph 8.1 mph 57 % 0.00 in
09:03 20.7 °F 7.9 °F 30.50 in NW 2.9 mph 6.0 mph 57 % 0.00 in
09:08 20.8 °F 7.9 °F 30.50 in WNW 2.1 mph 9.2 mph 57 % 0.00 in
09:11 20.8 °F 8.3 °F 30.50 in WNW 3.1 mph 6.9 mph 58 % 0.00 in
09:16 20.8 °F 7.9 °F 30.50 in West 0.7 mph 4.0 mph 57 % 0.00 in
09:17 20.8 °F 7.9 °F 30.50 in WNW 2.9 mph 6.9 mph 57 % 0.00 in
09:19 20.8 °F 7.9 °F 30.50 in WNW 5.2 mph 9.2 mph 57 % 0.00 in
09:24 20.8 °F 8.3 °F 30.50 in WNW 4.1 mph 6.9 mph 58 % 0.00 in
09:25 20.8 °F 8.3 °F 30.50 in NW 3.1 mph 9.2 mph 58 % 0.00 in
09:30 20.8 °F 7.9 °F 30.51 in WNW 6.3 mph 11.5 mph 57 % 0.00 in
09:32 20.8 °F 7.9 °F 30.51 in WSW 1.6 mph 6.9 mph 57 % 0.00 in
09:37 20.8 °F 8.3 °F 30.51 in NNW 2.0 mph 4.0 mph 58 % 0.00 in
09:43 20.8 °F 8.7 °F 30.51 in West 3.4 mph 5.8 mph 59 % 0.00 in
09:44 20.9 °F 8.8 °F 30.51 in WNW 6.8 mph 11.5 mph 59 % 0.00 in
09:49 21.0 °F 8.9 °F 30.51 in WSW 5.0 mph 6.9 mph 59 % 0.00 in
09:50 21.0 °F 8.9 °F 30.51 in West 5.3 mph 9.0 mph 59 % 0.00 in
09:55 21.1 °F 9.0 °F 30.51 in NW 3.9 mph 6.9 mph 59 % 0.00 in
09:57 21.2 °F 9.1 °F 30.51 in WNW 3.4 mph 6.9 mph 59 % 0.00 in
10:03 21.3 °F 8.8 °F 30.51 in WSW 5.3 mph 7.0 mph 58 % 0.00 in
10:04 21.4 °F 8.5 °F 30.51 in WSW 6.6 mph 11.5 mph 57 % 0.00 in
10:08 21.6 °F 8.3 °F 30.51 in NW 5.0 mph 8.1 mph 56 % 0.00 in
10:13 21.7 °F 8.4 °F 30.51 in NW 4.9 mph 11.5 mph 56 % 0.00 in
10:14 21.8 °F 8.1 °F 30.51 in NW 4.0 mph 8.1 mph 55 % 0.00 in
10:19 22.0 °F 8.3 °F 30.51 in NW 4.1 mph 11.5 mph 55 % 0.00 in
10:20 22.0 °F 8.3 °F 30.51 in WNW 1.8 mph 5.0 mph 55 % 0.00 in
10:25 22.2 °F 8.5 °F 30.51 in WNW 5.7 mph 9.2 mph 55 % 0.00 in
10:27 22.2 °F 8.1 °F 30.51 in NW 6.4 mph 11.5 mph 54 % 0.00 in
10:32 22.4 °F 7.4 °F 30.51 in WNW 5.6 mph 8.1 mph 52 % 0.00 in
10:37 22.5 °F 7.5 °F 30.51 in WSW 3.8 mph 10.4 mph 52 % 0.00 in
10:39 22.5 °F 7.5 °F 30.50 in West 5.3 mph 11.5 mph 52 % 0.00 in
10:44 22.5 °F 7.9 °F 30.50 in West 3.2 mph 6.9 mph 53 % 0.00 in
10:49 22.6 °F 8.8 °F 30.50 in NW 2.8 mph 6.9 mph 55 % 0.00 in
10:51 22.7 °F 9.3 °F 30.50 in WNW 2.9 mph 4.6 mph 56 % 0.00 in
10:53 22.7 °F 9.3 °F 30.50 in WNW 3.1 mph 4.6 mph 56 % 0.00 in
10:58 22.7 °F 9.3 °F 30.49 in West 3.1 mph 6.0 mph 56 % 0.00 in
11:03 22.9 °F 9.1 °F 30.49 in WNW 3.0 mph 6.9 mph 55 % 0.00 in
11:04 22.9 °F 9.1 °F 30.49 in West 6.0 mph 10.4 mph 55 % 0.00 in
11:09 22.9 °F 7.9 °F 30.49 in West 4.7 mph 9.2 mph 52 % 0.00 in
11:10 22.9 °F 7.9 °F 30.49 in WSW 5.7 mph 8.1 mph 52 % 0.00 in
11:15 22.9 °F 7.9 °F 30.49 in West 5.9 mph 11.5 mph 52 % 0.00 in
11:16 22.8 °F 7.8 °F 30.49 in WNW 3.0 mph 9.2 mph 52 % 0.00 in
11:21 22.8 °F 7.4 °F 30.49 in WNW 7.0 mph 11.5 mph 51 % 0.00 in
11:26 22.7 °F 6.8 °F 30.48 in WNW 7.0 mph 11.5 mph 50 % 0.00 in
11:29 22.7 °F 6.8 °F 30.48 in WNW 5.8 mph 11.5 mph 50 % 0.00 in
11:34 22.7 °F 6.8 °F 30.48 in WNW 1.8 mph 9.2 mph 50 % 0.00 in
11:37 22.6 °F 6.7 °F 30.47 in NW 3.7 mph 9.2 mph 50 % 0.00 in
11:41 22.6 °F 7.2 °F 30.48 in NW 5.7 mph 7.0 mph 51 % 0.00 in
11:43 22.6 °F 6.7 °F 30.48 in WNW 6.4 mph 11.5 mph 50 % 0.00 in
11:48 22.6 °F 6.7 °F 30.47 in WNW 2.5 mph 3.5 mph 50 % 0.00 in
11:49 22.6 °F 6.7 °F 30.47 in WNW 1.9 mph 3.5 mph 50 % 0.00 in
11:54 22.6 °F 7.6 °F 30.47 in WNW 5.0 mph 10.4 mph 52 % 0.00 in
11:55 22.6 °F 7.6 °F 30.47 in West 4.7 mph 10.4 mph 52 % 0.00 in
12:00 22.6 °F 8.0 °F 30.47 in NW 4.4 mph 8.0 mph 53 % 0.00 in
12:05 22.7 °F 7.7 °F 30.46 in WNW 4.4 mph 9.2 mph 52 % 0.00 in
12:06 22.8 °F 7.4 °F 30.46 in WNW 2.8 mph 5.0 mph 51 % 0.00 in
12:11 22.8 °F 6.9 °F 30.46 in NW 7.4 mph 11.5 mph 50 % 0.00 in
12:12 22.9 °F 6.6 °F 30.46 in WSW 5.2 mph 12.7 mph 49 % 0.00 in
12:17 23.0 °F 7.1 °F 30.46 in West 4.5 mph 9.2 mph 50 % 0.00 in
12:22 23.2 °F 7.3 °F 30.45 in SW 3.9 mph 7.0 mph 50 % 0.00 in
12:27 23.7 °F 8.2 °F 30.45 in WSW 5.8 mph 6.9 mph 51 % 0.00 in
12:31 24.0 °F 8.0 °F 30.46 in NNW 6.2 mph 13.8 mph 50 % 0.00 in
12:36 24.3 °F 8.3 °F 30.45 in WNW 3.2 mph 6.9 mph 50 % 0.00 in
12:39 24.5 °F 8.0 °F 30.44 in NW 3.4 mph 6.0 mph 49 % 0.00 in
12:44 24.7 °F 7.8 °F 30.44 in NW 3.5 mph 9.2 mph 48 % 0.00 in
12:48 24.8 °F 7.4 °F 30.44 in NW 3.6 mph 8.1 mph 47 % 0.00 in
12:53 24.9 °F 8.0 °F 30.44 in WNW 7.7 mph 10.4 mph 48 % 0.00 in
12:58 25.0 °F 7.6 °F 30.43 in NW 7.5 mph 15.0 mph 47 % 0.00 in
13:03 25.0 °F 7.6 °F 30.43 in SW 6.9 mph 9.2 mph 47 % 0.00 in
13:04 25.0 °F 7.1 °F 30.43 in WNW 6.4 mph 11.5 mph 46 % 0.00 in
13:09 25.0 °F 7.6 °F 30.43 in West 4.2 mph 6.9 mph 47 % 0.00 in
13:14 25.1 °F 7.7 °F 30.43 in WNW 4.0 mph 6.0 mph 47 % 0.00 in
13:19 25.1 °F 6.2 °F 30.43 in SW 8.3 mph 11.5 mph 44 % 0.00 in
13:20 25.1 °F 6.2 °F 30.43 in West 8.3 mph 11.5 mph 44 % 0.00 in
13:26 24.9 °F 6.5 °F 30.42 in West 6.0 mph 13.0 mph 45 % 0.00 in
13:29 24.9 °F 6.5 °F 30.42 in NW 8.3 mph 8.3 mph 45 % 0.00 in
13:34 24.9 °F 6.0 °F 30.42 in West 5.9 mph 6.0 mph 44 % 0.00 in
13:39 24.8 °F 5.4 °F 30.42 in WSW 6.3 mph 10.4 mph 43 % 0.00 in
13:40 24.8 °F 4.9 °F 30.42 in WSW 6.1 mph 10.4 mph 42 % 0.00 in
13:43 24.8 °F 4.9 °F 30.42 in NW 4.6 mph 10.4 mph 42 % 0.00 in
13:48 24.8 °F 4.9 °F 30.42 in West 6.5 mph 12.7 mph 42 % 0.00 in
13:52 24.8 °F 5.4 °F 30.42 in West 3.8 mph 7.0 mph 43 % 0.00 in
13:57 24.8 °F 5.9 °F 30.41 in NNW 1.2 mph 2.3 mph 44 % 0.00 in
13:59 24.9 °F 6.5 °F 30.42 in NW 6.3 mph 9.2 mph 45 % 0.00 in
14:05 25.0 °F 6.1 °F 30.42 in WSW 4.0 mph 10.4 mph 44 % 0.00 in
14:06 24.9 °F 6.1 °F 30.42 in WNW 5.0 mph 12.0 mph 44 % 0.00 in
14:07 25.0 °F 5.6 °F 30.42 in NW 4.7 mph 11.5 mph 43 % 0.00 in
14:12 24.9 °F 5.5 °F 30.42 in WNW 4.5 mph 5.8 mph 43 % 0.00 in
14:15 24.9 °F 6.5 °F 30.42 in NW 5.2 mph 10.4 mph 45 % 0.00 in
14:20 24.7 °F 5.3 °F 30.42 in WSW 3.4 mph 8.1 mph 43 % 0.00 in
14:23 24.6 °F 5.3 °F 30.42 in West 6.4 mph 10.4 mph 43 % 0.00 in
14:27 24.5 °F 5.7 °F 30.42 in NNW 4.3 mph 10.4 mph 44 % 0.00 in
14:28 24.5 °F 5.2 °F 30.42 in WSW 6.6 mph 9.2 mph 43 % 0.00 in
14:33 24.3 °F 5.5 °F 30.42 in WNW 4.5 mph 8.1 mph 44 % 0.00 in
14:35 24.2 °F 5.4 °F 30.42 in NNW 4.7 mph 8.1 mph 44 % 0.00 in
14:40 24.0 °F 5.2 °F 30.41 in WNW 3.9 mph 6.9 mph 44 % 0.00 in
14:44 24.0 °F 6.2 °F 30.41 in WNW 5.4 mph 11.5 mph 46 % 0.00 in
14:49 23.8 °F 5.0 °F 30.41 in NNW 3.8 mph 6.9 mph 44 % 0.00 in
14:52 23.8 °F 5.0 °F 30.41 in WNW 4.6 mph 10.4 mph 44 % 0.00 in
14:57 23.6 °F 5.3 °F 30.41 in NW 3.3 mph 6.9 mph 45 % 0.00 in
14:58 23.7 °F 5.4 °F 30.42 in West 3.7 mph 6.9 mph 45 % 0.00 in
15:03 23.6 °F 5.3 °F 30.41 in NW 6.6 mph 8.1 mph 45 % 0.00 in
15:04 23.6 °F 5.3 °F 30.42 in NNW 4.2 mph 8.1 mph 45 % 0.00 in
15:09 23.5 °F 5.7 °F 30.42 in WNW 3.6 mph 9.2 mph 46 % 0.00 in
15:14 23.4 °F 4.7 °F 30.42 in North 5.0 mph 9.2 mph 44 % 0.00 in
15:18 23.4 °F 5.2 °F 30.42 in WNW 2.3 mph 3.5 mph 45 % 0.00 in
15:23 23.4 °F 5.2 °F 30.42 in WNW 3.6 mph 10.4 mph 45 % 0.00 in
15:24 23.3 °F 5.1 °F 30.42 in WNW 2.4 mph 10.4 mph 45 % 0.00 in
15:26 23.3 °F 4.6 °F 30.42 in NW 2.9 mph 5.8 mph 44 % 0.00 in
15:31 23.3 °F 5.1 °F 30.42 in NW 4.7 mph 9.2 mph 45 % 0.00 in
15:33 23.3 °F 5.5 °F 30.42 in WNW 7.6 mph 12.7 mph 46 % 0.00 in
15:37 23.2 °F 5.4 °F 30.43 in NNW 4.5 mph 9.2 mph 46 % 0.00 in
15:41 23.2 °F 5.4 °F 30.42 in West 2.1 mph 3.5 mph 46 % 0.00 in
15:46 23.2 °F 5.4 °F 30.42 in WNW 3.1 mph 6.0 mph 46 % 0.00 in
15:51 23.1 °F 5.4 °F 30.42 in WNW 1.8 mph 3.5 mph 46 % 0.00 in
15:56 23.1 °F 5.8 °F 30.42 in WNW 0.5 mph 6.9 mph 47 % 0.00 in
16:01 23.0 °F 6.2 °F 30.42 in WNW 2.1 mph 5.8 mph 48 % 0.00 in
16:02 23.0 °F 6.2 °F 30.42 in WNW 1.7 mph 5.8 mph 48 % 0.00 in
16:06 23.0 °F 5.7 °F 30.42 in WSW 3.2 mph 6.9 mph 47 % 0.00 in
16:11 22.9 °F 5.6 °F 30.42 in NW 5.3 mph 8.1 mph 47 % 0.00 in
16:16 22.9 °F 6.1 °F 30.42 in NNW 4.3 mph 8.1 mph 48 % 0.00 in
16:17 22.9 °F 6.1 °F 30.42 in WNW 4.8 mph 8.1 mph 48 % 0.00 in
16:22 22.8 °F 5.6 °F 30.42 in WNW 2.2 mph 6.9 mph 47 % 0.00 in
16:27 22.8 °F 6.0 °F 30.43 in WNW 1.2 mph 3.5 mph 48 % 0.00 in
16:32 22.7 °F 5.9 °F 30.43 in WNW 5.0 mph 8.1 mph 48 % 0.00 in
16:38 22.7 °F 5.5 °F 30.43 in WNW 3.4 mph 8.1 mph 47 % 0.00 in
16:43 22.7 °F 5.5 °F 30.43 in NW 2.4 mph 5.8 mph 47 % 0.00 in
16:48 22.7 °F 5.9 °F 30.43 in NW 3.8 mph 7.0 mph 48 % 0.00 in
16:49 22.7 °F 5.9 °F 30.43 in North 4.9 mph 6.9 mph 48 % 0.00 in
16:54 22.8 °F 6.0 °F 30.44 in North 2.7 mph 4.6 mph 48 % 0.00 in
16:56 22.7 °F 5.9 °F 30.43 in North 3.1 mph 4.6 mph 48 % 0.00 in
17:07 22.8 °F 6.0 °F 30.44 in NNW 3.3 mph 9.2 mph 48 % 0.00 in
17:12 22.7 °F 5.9 °F 30.44 in NNW 5.3 mph 10.4 mph 48 % 0.00 in
17:14 22.7 °F 5.5 °F 30.44 in NNW 2.4 mph 9.2 mph 47 % 0.00 in
17:19 22.7 °F 5.9 °F 30.44 in NNW 1.3 mph 3.5 mph 48 % 0.00 in
17:24 22.7 °F 5.9 °F 30.45 in NNW 5.4 mph 10.0 mph 48 % 0.00 in
17:26 22.7 °F 6.4 °F 30.45 in WNW 3.2 mph 10.4 mph 49 % 0.00 in
17:31 22.7 °F 6.4 °F 30.45 in NNW 2.0 mph 11.5 mph 49 % 0.00 in
17:32 22.7 °F 6.4 °F 30.45 in NNW 1.0 mph 1.2 mph 49 % 0.00 in
17:35 22.7 °F 5.9 °F 30.45 in WNW 4.4 mph 8.0 mph 48 % 0.00 in
17:40 22.7 °F 5.9 °F 30.45 in North 5.4 mph 11.5 mph 48 % 0.00 in
17:42 22.7 °F 5.9 °F 30.45 in NNW 5.6 mph 8.1 mph 48 % 0.00 in
17:47 22.7 °F 5.9 °F 30.45 in NW 4.6 mph 10.4 mph 48 % 0.00 in
17:49 22.7 °F 5.9 °F 30.46 in WNW 0.5 mph 5.8 mph 48 % 0.00 in
17:50 22.7 °F 5.9 °F 30.46 in NW 5.1 mph 9.2 mph 48 % 0.00 in
17:55 22.7 °F 5.9 °F 30.45 in NW 5.8 mph 10.4 mph 48 % 0.00 in
18:00 22.7 °F 5.9 °F 30.46 in North 6.5 mph 12.7 mph 48 % 0.00 in
18:05 22.7 °F 5.5 °F 30.46 in NNW 4.8 mph 6.9 mph 47 % 0.00 in
18:06 22.7 °F 5.5 °F 30.46 in NW 5.2 mph 11.5 mph 47 % 0.00 in
18:11 22.7 °F 5.5 °F 30.46 in WNW 6.6 mph 14.0 mph 47 % 0.00 in
18:12 22.7 °F 5.9 °F 30.46 in WNW 5.1 mph 13.8 mph 48 % 0.00 in
18:13 22.7 °F 5.9 °F 30.46 in NW 6.2 mph 11.5 mph 48 % 0.00 in
18:18 22.7 °F 5.0 °F 30.46 in North 5.7 mph 10.4 mph 46 % 0.00 in
18:21 22.7 °F 5.0 °F 30.46 in NNW 5.0 mph 9.2 mph 46 % 0.00 in
18:26 22.7 °F 5.5 °F 30.46 in NNW 8.4 mph 13.8 mph 47 % 0.00 in
18:31 22.7 °F 5.5 °F 30.47 in NW 7.1 mph 13.8 mph 47 % 0.00 in
18:32 22.7 °F 5.0 °F 30.46 in NW 5.3 mph 11.5 mph 46 % 0.00 in
18:37 22.6 °F 5.8 °F 30.47 in WNW 5.9 mph 9.0 mph 48 % 0.00 in
18:40 22.6 °F 5.8 °F 30.47 in NW 5.6 mph 10.4 mph 48 % 0.00 in
18:45 22.6 °F 5.4 °F 30.47 in NW 6.8 mph 15.0 mph 47 % 0.00 in
18:46 22.6 °F 5.8 °F 30.47 in NNW 6.1 mph 11.5 mph 48 % 0.00 in
18:52 22.6 °F 5.4 °F 30.47 in WNW 5.9 mph 15.0 mph 47 % 0.00 in
18:57 22.5 °F 5.3 °F 30.48 in NW 5.6 mph 9.2 mph 47 % 0.00 in
19:00 22.5 °F 6.2 °F 30.48 in NW 8.7 mph 13.8 mph 49 % 0.00 in
19:03 22.5 °F 5.7 °F 30.48 in North 3.7 mph 11.0 mph 48 % 0.00 in
19:08 22.5 °F 7.1 °F 30.48 in North 6.2 mph 9.2 mph 51 % 0.00 in
19:10 22.5 °F 7.1 °F 30.48 in NW 5.5 mph 9.2 mph 51 % 0.00 in
19:15 22.4 °F 7.4 °F 30.48 in North 7.8 mph 13.8 mph 52 % 0.00 in
19:16 22.4 °F 7.4 °F 30.47 in NNW 7.3 mph 13.8 mph 52 % 0.00 in
19:21 22.4 °F 7.0 °F 30.48 in NNW 6.0 mph 20.0 mph 51 % 0.00 in
19:26 22.2 °F 7.2 °F 30.48 in NW 7.6 mph 11.5 mph 52 % 0.00 in
19:27 22.2 °F 7.2 °F 30.48 in NNW 6.2 mph 11.5 mph 52 % 0.00 in
19:32 22.1 °F 6.3 °F 30.48 in NW 7.6 mph 12.7 mph 50 % 0.00 in
19:37 22.0 °F 6.2 °F 30.48 in North 7.4 mph 13.8 mph 50 % 0.00 in
19:38 22.0 °F 7.0 °F 30.48 in NNW 7.4 mph 11.5 mph 52 % 0.00 in
19:43 21.9 °F 6.9 °F 30.48 in NW 7.4 mph 15.0 mph 52 % 0.00 in
19:48 21.9 °F 7.8 °F 30.47 in NW 6.0 mph 10.4 mph 54 % 0.00 in
19:52 21.8 °F 6.4 °F 30.47 in NW 6.3 mph 12.0 mph 51 % 0.00 in
19:54 21.7 °F 6.8 °F 30.48 in North 6.5 mph 12.0 mph 52 % 0.00 in
19:59 21.6 °F 6.2 °F 30.48 in NNW 6.4 mph 11.5 mph 51 % 0.00 in
20:04 21.5 °F 6.6 °F 30.47 in NNW 5.3 mph 13.8 mph 52 % 0.00 in
20:08 21.4 °F 6.0 °F 30.48 in NNW 5.3 mph 9.2 mph 51 % 0.00 in
20:13 21.3 °F 6.0 °F 30.48 in WNW 5.3 mph 9.2 mph 51 % 0.00 in
20:14 21.3 °F 6.0 °F 30.48 in NW 7.0 mph 13.8 mph 51 % 0.00 in
20:19 21.2 °F 5.4 °F 30.48 in West 6.5 mph 9.2 mph 50 % 0.00 in
20:24 21.1 °F 5.3 °F 30.48 in NNW 7.7 mph 18.4 mph 50 % 0.00 in
20:29 21.0 °F 4.8 °F 30.48 in North 3.9 mph 10.4 mph 49 % 0.00 in
20:33 20.9 °F 5.2 °F 30.48 in NW 6.4 mph 8.0 mph 50 % 0.00 in
20:38 20.8 °F 4.2 °F 30.48 in NW 4.7 mph 9.2 mph 48 % 0.00 in
20:39 20.8 °F 4.6 °F 30.48 in NNW 7.8 mph 12.7 mph 49 % 0.00 in
20:44 20.7 °F 4.5 °F 30.48 in North 6.9 mph 11.5 mph 49 % 0.00 in
20:49 20.6 °F 4.9 °F 30.48 in NNW 8.0 mph 12.7 mph 50 % 0.00 in
20:51 20.6 °F 4.9 °F 30.48 in NW 6.0 mph 13.0 mph 50 % 0.00 in
20:54 20.5 °F 4.8 °F 30.48 in NW 2.9 mph 9.2 mph 50 % 0.00 in
20:59 20.4 °F 4.7 °F 30.48 in NNW 8.7 mph 15.0 mph 50 % 0.00 in
21:02 20.3 °F 5.0 °F 30.48 in WNW 10.3 mph 15.0 mph 51 % 0.00 in
21:03 20.3 °F 4.6 °F 30.48 in NNW 5.1 mph 15.0 mph 50 % 0.00 in
21:08 20.3 °F 5.0 °F 30.48 in NW 5.6 mph 8.1 mph 51 % 0.00 in
21:10 20.3 °F 5.0 °F 30.48 in NW 9.5 mph 16.1 mph 51 % 0.00 in
21:15 20.2 °F 4.9 °F 30.49 in WNW 6.6 mph 10.0 mph 51 % 0.00 in
21:20 20.2 °F 5.8 °F 30.49 in NW 8.6 mph 11.0 mph 53 % 0.00 in
21:25 20.0 °F 5.2 °F 30.49 in NW 3.1 mph 11.5 mph 52 % 0.00 in
21:26 20.0 °F 4.7 °F 30.49 in NNW 5.5 mph 9.2 mph 51 % 0.00 in
21:31 20.0 °F 4.7 °F 30.49 in NNW 9.3 mph 17.3 mph 51 % 0.00 in
21:36 19.9 °F 4.7 °F 30.49 in WNW 9.1 mph 12.7 mph 51 % 0.00 in
21:39 19.9 °F 4.2 °F 30.49 in WNW 8.3 mph 15.0 mph 50 % 0.00 in
21:44 19.8 °F 4.6 °F 30.49 in NNW 5.5 mph 8.1 mph 51 % 0.00 in
21:49 19.8 °F 5.0 °F 30.48 in NW 8.5 mph 12.7 mph 52 % 0.00 in
21:53 19.7 °F 4.9 °F 30.48 in West 6.7 mph 11.5 mph 52 % 0.00 in
21:58 19.7 °F 4.5 °F 30.48 in NW 6.4 mph 11.5 mph 51 % 0.00 in
21:59 19.7 °F 4.5 °F 30.48 in WNW 3.4 mph 11.5 mph 51 % 0.00 in
22:05 19.6 °F 4.4 °F 30.49 in West 4.6 mph 5.8 mph 51 % 0.00 in
22:06 19.6 °F 4.8 °F 30.49 in NW 4.9 mph 11.5 mph 52 % 0.00 in
22:12 19.5 °F 4.3 °F 30.49 in NNW 6.7 mph 12.0 mph 51 % 0.00 in
22:17 19.4 °F 4.2 °F 30.49 in NW 5.9 mph 19.6 mph 51 % 0.00 in
22:19 19.4 °F 4.2 °F 30.49 in WNW 7.4 mph 13.8 mph 51 % 0.00 in
22:24 19.4 °F 5.0 °F 30.49 in NW 7.5 mph 16.1 mph 53 % 0.00 in
22:26 19.4 °F 4.2 °F 30.49 in NW 3.3 mph 10.0 mph 51 % 0.00 in
22:31 19.4 °F 4.2 °F 30.49 in NW 9.3 mph 13.8 mph 51 % 0.00 in
22:36 19.4 °F 4.6 °F 30.49 in West 5.7 mph 9.0 mph 52 % 0.00 in
22:41 19.3 °F 4.1 °F 30.49 in NNW 5.3 mph 11.5 mph 51 % 0.00 in
22:42 19.3 °F 4.1 °F 30.49 in NW 5.8 mph 11.5 mph 51 % 0.00 in
22:44 19.3 °F 4.1 °F 30.49 in WNW 5.9 mph 15.0 mph 51 % 0.00 in
22:47 19.3 °F 4.9 °F 30.49 in NW 4.9 mph 10.4 mph 53 % 0.00 in
22:52 19.3 °F 4.5 °F 30.49 in WNW 8.3 mph 15.0 mph 52 % 0.00 in
22:53 19.3 °F 4.5 °F 30.49 in WSW 6.6 mph 12.7 mph 52 % 0.00 in
22:58 19.2 °F 4.0 °F 30.49 in WNW 8.7 mph 13.8 mph 51 % 0.00 in
23:04 19.2 °F 4.4 °F 30.48 in NW 7.1 mph 12.7 mph 52 % 0.00 in
23:09 19.2 °F 4.4 °F 30.48 in NW 8.2 mph 13.8 mph 52 % 0.00 in
23:12 19.2 °F 4.4 °F 30.48 in WNW 9.0 mph 11.5 mph 52 % 0.00 in
23:14 19.2 °F 4.0 °F 30.48 in WNW 5.9 mph 10.0 mph 51 % 0.00 in
23:19 19.1 °F 4.8 °F 30.48 in NW 7.4 mph 10.0 mph 53 % 0.00 in
23:24 19.1 °F 3.9 °F 30.48 in WNW 5.3 mph 11.5 mph 51 % 0.00 in
23:25 19.0 °F 4.2 °F 30.48 in NW 5.4 mph 8.1 mph 52 % 0.00 in
23:30 19.0 °F 4.7 °F 30.47 in NNW 10.4 mph 15.0 mph 53 % 0.00 in
23:33 19.0 °F 4.7 °F 30.47 in NNW 3.2 mph 6.9 mph 53 % 0.00 in
23:35 18.9 °F 4.6 °F 30.47 in West 11.8 mph 19.6 mph 53 % 0.00 in
23:37 18.9 °F 4.1 °F 30.47 in NW 9.4 mph 15.0 mph 52 % 0.00 in
23:39 18.9 °F 4.1 °F 30.47 in WNW 5.0 mph 15.0 mph 52 % 0.00 in
23:44 18.8 °F 4.9 °F 30.47 in NW 6.9 mph 13.8 mph 54 % 0.00 in
23:49 18.7 °F 4.4 °F 30.47 in WNW 8.5 mph 16.1 mph 53 % 0.00 in
23:50 18.6 °F 4.3 °F 30.47 in WNW 7.1 mph 12.0 mph 53 % 0.00 in
23:55 18.6 °F 4.7 °F 30.47 in NW 7.7 mph 12.7 mph 54 % 0.00 in
23:57 18.6 °F 5.1 °F 30.47 in NW 6.7 mph 17.3 mph 55 % 0.00 in
Crab Meadow Weather
Compliments of Weather Underground - 3.5 mb

Script developed by  Jim McMurry - jmcmurry@mwt.net Adapted for the template by  Wim van der Kuil - Leuven-Template.eu

Weather Terms: Winter Storm Watch - Conditions are favorable for hazardous winter weather conditions including heavy snow, blizzard conditions, or significant accumulations of freezing rain or sleet. These watches are issued by the Weather Service Forecast Office in Upton and are usually issued 12 to 36 hours in advance of the event.